sensor_id;sensor_type;location;lat;lon;timestamp;pressure;altitude;pressure_sealevel;temperature;humidity
31483;BME280;18103;52.246;8.052;2023-06-26T00:00:33;100117.69;;;24.28;57.72
31483;BME280;18103;52.246;8.052;2023-06-26T00:02:59;100113.97;;;24.29;57.98
31483;BME280;18103;52.246;8.052;2023-06-26T00:05:26;100103.94;;;24.36;57.63
31483;BME280;18103;52.246;8.052;2023-06-26T00:07:53;100113.56;;;24.25;58.15
31483;BME280;18103;52.246;8.052;2023-06-26T00:10:20;100113.00;;;24.17;58.50
31483;BME280;18103;52.246;8.052;2023-06-26T00:12:46;100107.81;;;24.15;58.49
31483;BME280;18103;52.246;8.052;2023-06-26T00:15:11;100107.16;;;24.20;58.53
31483;BME280;18103;52.246;8.052;2023-06-26T00:17:37;100103.25;;;24.09;58.69
31483;BME280;18103;52.246;8.052;2023-06-26T00:20:03;100105.59;;;24.05;58.94
31483;BME280;18103;52.246;8.052;2023-06-26T00:22:30;100094.31;;;24.15;58.67
31483;BME280;18103;52.246;8.052;2023-06-26T00:24:55;100098.94;;;24.08;59.10
31483;BME280;18103;52.246;8.052;2023-06-26T00:27:23;100098.06;;;24.14;59.02
31483;BME280;18103;52.246;8.052;2023-06-26T00:29:48;100083.81;;;24.00;59.35
31483;BME280;18103;52.246;8.052;2023-06-26T00:32:14;100092.13;;;23.99;59.47
31483;BME280;18103;52.246;8.052;2023-06-26T00:34:39;100085.00;;;24.11;58.93
31483;BME280;18103;52.246;8.052;2023-06-26T00:37:04;100086.75;;;23.92;59.52
31483;BME280;18103;52.246;8.052;2023-06-26T00:39:30;100094.69;;;23.80;60.21
31483;BME280;18103;52.246;8.052;2023-06-26T00:41:58;100095.50;;;23.74;60.32
31483;BME280;18103;52.246;8.052;2023-06-26T00:44:25;100090.34;;;23.72;60.38
31483;BME280;18103;52.246;8.052;2023-06-26T00:46:51;100087.22;;;23.75;60.44
31483;BME280;18103;52.246;8.052;2023-06-26T00:49:16;100091.22;;;23.60;60.58
31483;BME280;18103;52.246;8.052;2023-06-26T00:51:43;100088.50;;;23.73;60.47
31483;BME280;18103;52.246;8.052;2023-06-26T00:54:08;100086.41;;;23.68;60.68
31483;BME280;18103;52.246;8.052;2023-06-26T00:56:34;100074.81;;;23.68;60.53
31483;BME280;18103;52.246;8.052;2023-06-26T00:59:00;100072.16;;;23.54;61.20
31483;BME280;18103;52.246;8.052;2023-06-26T01:01:25;100070.09;;;23.63;61.15
31483;BME280;18103;52.246;8.052;2023-06-26T01:03:52;100074.66;;;23.56;61.63
31483;BME280;18103;52.246;8.052;2023-06-26T01:06:22;100062.22;;;23.62;60.94
31483;BME280;18103;52.246;8.052;2023-06-26T01:08:49;100058.66;;;23.61;61.39
31483;BME280;18103;52.246;8.052;2023-06-26T01:11:15;100055.19;;;23.54;61.87
31483;BME280;18103;52.246;8.052;2023-06-26T01:13:43;100056.44;;;23.51;61.61
31483;BME280;18103;52.246;8.052;2023-06-26T01:16:10;100056.03;;;23.48;61.85
31483;BME280;18103;52.246;8.052;2023-06-26T01:18:40;100056.66;;;23.43;61.89
31483;BME280;18103;52.246;8.052;2023-06-26T01:21:07;100042.81;;;23.33;62.19
31483;BME280;18103;52.246;8.052;2023-06-26T01:23:47;100049.81;;;23.40;61.65
31483;BME280;18103;52.246;8.052;2023-06-26T01:26:19;100039.06;;;23.40;61.99
31483;BME280;18103;52.246;8.052;2023-06-26T01:28:46;100040.97;;;23.27;62.35
31483;BME280;18103;52.246;8.052;2023-06-26T01:31:12;100040.50;;;23.36;62.07
31483;BME280;18103;52.246;8.052;2023-06-26T01:33:41;100031.63;;;23.29;62.01
31483;BME280;18103;52.246;8.052;2023-06-26T01:36:07;100028.13;;;23.29;62.14
31483;BME280;18103;52.246;8.052;2023-06-26T01:38:35;100021.94;;;23.21;62.32
31483;BME280;18103;52.246;8.052;2023-06-26T01:41:02;100014.63;;;23.35;61.62
31483;BME280;18103;52.246;8.052;2023-06-26T01:46:29;100010.97;;;23.16;61.88
31483;BME280;18103;52.246;8.052;2023-06-26T01:49:03;99999.16;;;23.17;62.03
31483;BME280;18103;52.246;8.052;2023-06-26T01:51:38;99997.72;;;23.15;61.88
31483;BME280;18103;52.246;8.052;2023-06-26T01:54:10;100000.81;;;23.05;62.22
31483;BME280;18103;52.246;8.052;2023-06-26T01:56:38;100010.16;;;23.16;61.53
31483;BME280;18103;52.246;8.052;2023-06-26T01:59:07;100001.25;;;23.09;61.84
31483;BME280;18103;52.246;8.052;2023-06-26T02:01:33;100004.53;;;23.04;61.81
31483;BME280;18103;52.246;8.052;2023-06-26T02:03:59;100010.34;;;23.07;61.71
31483;BME280;18103;52.246;8.052;2023-06-26T02:06:25;100002.91;;;22.96;61.91
31483;BME280;18103;52.246;8.052;2023-06-26T02:08:50;99998.16;;;22.92;62.02
31483;BME280;18103;52.246;8.052;2023-06-26T02:11:15;99996.09;;;22.87;62.15
31483;BME280;18103;52.246;8.052;2023-06-26T02:13:41;100000.25;;;22.83;62.09
31483;BME280;18103;52.246;8.052;2023-06-26T02:16:10;99995.28;;;22.73;62.56
31483;BME280;18103;52.246;8.052;2023-06-26T02:18:36;99989.69;;;22.81;62.14
31483;BME280;18103;52.246;8.052;2023-06-26T02:21:03;99989.69;;;22.75;62.61
31483;BME280;18103;52.246;8.052;2023-06-26T02:23:29;99984.94;;;22.77;62.11
31483;BME280;18103;52.246;8.052;2023-06-26T02:25:56;99985.75;;;22.84;61.88
31483;BME280;18103;52.246;8.052;2023-06-26T02:28:22;99987.22;;;22.73;61.98
31483;BME280;18103;52.246;8.052;2023-06-26T02:30:47;99980.16;;;22.79;61.68
31483;BME280;18103;52.246;8.052;2023-06-26T02:33:12;99989.06;;;22.86;61.08
31483;BME280;18103;52.246;8.052;2023-06-26T02:35:38;99983.47;;;22.87;60.92
31483;BME280;18103;52.246;8.052;2023-06-26T02:38:03;99979.50;;;23.03;60.41
31483;BME280;18103;52.246;8.052;2023-06-26T02:40:31;99980.00;;;22.73;60.98
31483;BME280;18103;52.246;8.052;2023-06-26T02:42:56;99971.44;;;22.90;60.29
31483;BME280;18103;52.246;8.052;2023-06-26T02:45:22;99973.97;;;22.85;60.16
31483;BME280;18103;52.246;8.052;2023-06-26T02:47:47;99974.56;;;22.87;59.96
31483;BME280;18103;52.246;8.052;2023-06-26T02:50:15;99974.34;;;22.82;60.05
31483;BME280;18103;52.246;8.052;2023-06-26T02:52:42;99973.75;;;22.86;59.70
31483;BME280;18103;52.246;8.052;2023-06-26T02:55:08;99971.50;;;22.77;60.34
31483;BME280;18103;52.246;8.052;2023-06-26T02:57:33;99976.25;;;22.75;60.13
31483;BME280;18103;52.246;8.052;2023-06-26T03:00:03;99983.50;;;22.74;60.26
31483;BME280;18103;52.246;8.052;2023-06-26T03:02:28;99980.59;;;22.76;59.58
31483;BME280;18103;52.246;8.052;2023-06-26T03:04:54;99977.47;;;22.79;59.04
31483;BME280;18103;52.246;8.052;2023-06-26T03:07:23;99981.41;;;22.76;58.65
31483;BME280;18103;52.246;8.052;2023-06-26T03:09:48;99979.56;;;22.83;58.40
31483;BME280;18103;52.246;8.052;2023-06-26T03:12:13;99975.59;;;22.86;58.33
31483;BME280;18103;52.246;8.052;2023-06-26T03:14:39;99973.97;;;22.78;58.49
31483;BME280;18103;52.246;8.052;2023-06-26T03:17:04;99976.66;;;22.78;58.36
31483;BME280;18103;52.246;8.052;2023-06-26T03:19:32;99968.78;;;22.83;58.34
31483;BME280;18103;52.246;8.052;2023-06-26T03:21:59;99972.09;;;22.72;58.33
31483;BME280;18103;52.246;8.052;2023-06-26T03:24:27;99977.47;;;22.79;58.06
31483;BME280;18103;52.246;8.052;2023-06-26T03:26:53;99976.44;;;22.80;58.02
31483;BME280;18103;52.246;8.052;2023-06-26T03:29:18;99973.97;;;22.85;58.10
31483;BME280;18103;52.246;8.052;2023-06-26T03:31:43;99980.59;;;22.82;57.99
31483;BME280;18103;52.246;8.052;2023-06-26T03:34:09;99977.25;;;22.87;57.56
31483;BME280;18103;52.246;8.052;2023-06-26T03:36:34;99978.50;;;22.91;57.84
31483;BME280;18103;52.246;8.052;2023-06-26T03:39:03;99981.81;;;22.80;58.03
31483;BME280;18103;52.246;8.052;2023-06-26T03:41:29;99975.63;;;22.79;57.84
31483;BME280;18103;52.246;8.052;2023-06-26T03:43:54;99977.25;;;22.80;57.89
31483;BME280;18103;52.246;8.052;2023-06-26T03:46:22;99985.13;;;22.88;57.90
31483;BME280;18103;52.246;8.052;2023-06-26T03:48:48;99981.81;;;22.86;58.22
31483;BME280;18103;52.246;8.052;2023-06-26T03:51:14;99978.50;;;22.84;57.85
31483;BME280;18103;52.246;8.052;2023-06-26T03:53:39;99974.97;;;22.97;57.64
31483;BME280;18103;52.246;8.052;2023-06-26T03:56:07;99977.84;;;22.96;57.67
31483;BME280;18103;52.246;8.052;2023-06-26T03:58:32;99975.78;;;22.98;58.08
31483;BME280;18103;52.246;8.052;2023-06-26T04:00:57;99962.13;;;22.93;58.37
31483;BME280;18103;52.246;8.052;2023-06-26T04:03:23;99965.09;;;22.78;58.58
31483;BME280;18103;52.246;8.052;2023-06-26T04:05:49;99962.56;;;22.76;58.02
31483;BME280;18103;52.246;8.052;2023-06-26T04:08:19;99959.25;;;22.87;57.73
31483;BME280;18103;52.246;8.052;2023-06-26T04:10:45;99957.38;;;22.88;58.05
31483;BME280;18103;52.246;8.052;2023-06-26T04:13:13;99970.22;;;22.86;57.93
31483;BME280;18103;52.246;8.052;2023-06-26T04:15:39;99962.78;;;22.88;57.47
31483;BME280;18103;52.246;8.052;2023-06-26T04:18:07;99968.53;;;22.92;57.79
31483;BME280;18103;52.246;8.052;2023-06-26T04:20:37;99974.56;;;22.87;57.97
31483;BME280;18103;52.246;8.052;2023-06-26T04:23:03;99971.47;;;22.83;58.42
31483;BME280;18103;52.246;8.052;2023-06-26T04:25:28;99972.69;;;22.94;58.70
31483;BME280;18103;52.246;8.052;2023-06-26T04:27:54;99973.91;;;23.05;58.58
31483;BME280;18103;52.246;8.052;2023-06-26T04:30:19;99966.06;;;22.97;58.30
31483;BME280;18103;52.246;8.052;2023-06-26T04:32:45;99978.50;;;22.91;58.80
31483;BME280;18103;52.246;8.052;2023-06-26T04:35:13;99960.69;;;22.90;58.90
31483;BME280;18103;52.246;8.052;2023-06-26T04:37:38;99967.28;;;22.94;59.05
31483;BME280;18103;52.246;8.052;2023-06-26T04:40:05;99968.13;;;22.95;58.83
31483;BME280;18103;52.246;8.052;2023-06-26T04:42:34;99967.72;;;22.98;58.95
31483;BME280;18103;52.246;8.052;2023-06-26T04:45:00;99973.53;;;22.95;58.78
31483;BME280;18103;52.246;8.052;2023-06-26T04:47:27;99969.59;;;22.90;58.40
31483;BME280;18103;52.246;8.052;2023-06-26T04:49:52;99970.41;;;22.98;58.97
31483;BME280;18103;52.246;8.052;2023-06-26T04:52:18;99975.16;;;23.02;58.97
31483;BME280;18103;52.246;8.052;2023-06-26T04:54:43;99980.34;;;22.97;58.98
31483;BME280;18103;52.246;8.052;2023-06-26T04:57:08;99986.53;;;23.04;59.03
31483;BME280;18103;52.246;8.052;2023-06-26T04:59:34;99976.59;;;22.98;59.01
31483;BME280;18103;52.246;8.052;2023-06-26T05:02:00;99988.22;;;22.99;58.88
31483;BME280;18103;52.246;8.052;2023-06-26T05:04:25;99978.69;;;23.03;58.61
31483;BME280;18103;52.246;8.052;2023-06-26T05:06:53;99987.16;;;23.06;58.91
31483;BME280;18103;52.246;8.052;2023-06-26T05:09:19;99989.03;;;23.06;59.16
31483;BME280;18103;52.246;8.052;2023-06-26T05:11:44;99987.16;;;23.06;59.53
31483;BME280;18103;52.246;8.052;2023-06-26T05:14:09;99990.47;;;23.09;59.57
31483;BME280;18103;52.246;8.052;2023-06-26T05:16:36;99988.59;;;23.22;59.86
31483;BME280;18103;52.246;8.052;2023-06-26T05:19:03;99984.44;;;23.20;59.75
31483;BME280;18103;52.246;8.052;2023-06-26T05:21:29;99984.38;;;23.33;59.56
31483;BME280;18103;52.246;8.052;2023-06-26T05:23:56;99977.59;;;23.24;59.73
31483;BME280;18103;52.246;8.052;2023-06-26T05:26:22;99980.28;;;23.24;59.76
31483;BME280;18103;52.246;8.052;2023-06-26T05:28:50;99982.09;;;23.37;59.86
31483;BME280;18103;52.246;8.052;2023-06-26T05:31:16;99986.03;;;23.34;60.47
31483;BME280;18103;52.246;8.052;2023-06-26T05:33:43;99983.56;;;23.33;60.20
31483;BME280;18103;52.246;8.052;2023-06-26T05:36:12;99986.03;;;23.34;60.46
31483;BME280;18103;52.246;8.052;2023-06-26T05:38:41;99984.03;;;23.23;61.34
31483;BME280;18103;52.246;8.052;2023-06-26T05:41:06;99986.03;;;23.34;61.03
31483;BME280;18103;52.246;8.052;2023-06-26T05:43:34;99994.91;;;23.41;61.37
31483;BME280;18103;52.246;8.052;2023-06-26T05:45:59;99984.09;;;23.55;60.94
31483;BME280;18103;52.246;8.052;2023-06-26T05:48:28;99982.44;;;23.54;60.90
31483;BME280;18103;52.246;8.052;2023-06-26T05:50:53;99980.16;;;23.57;61.44
31483;BME280;18103;52.246;8.052;2023-06-26T05:53:19;99976.28;;;23.79;61.28
31483;BME280;18103;52.246;8.052;2023-06-26T05:55:45;99979.16;;;23.84;60.90
31483;BME280;18103;52.246;8.052;2023-06-26T05:58:14;99972.38;;;23.74;61.08
31483;BME280;18103;52.246;8.052;2023-06-26T06:00:39;99975.00;;;23.88;61.41
31483;BME280;18103;52.246;8.052;2023-06-26T06:03:06;99984.22;;;23.67;61.84
31483;BME280;18103;52.246;8.052;2023-06-26T06:05:31;99985.31;;;23.59;62.48
31483;BME280;18103;52.246;8.052;2023-06-26T06:08:01;99987.31;;;23.70;62.50
31483;BME280;18103;52.246;8.052;2023-06-26T06:10:27;99993.50;;;23.78;62.64
31483;BME280;18103;52.246;8.052;2023-06-26T06:12:52;100003.88;;;23.74;62.42
31483;BME280;18103;52.246;8.052;2023-06-26T06:15:22;100002.84;;;23.75;62.92
31483;BME280;18103;52.246;8.052;2023-06-26T06:17:48;100023.28;;;23.96;62.60
31483;BME280;18103;52.246;8.052;2023-06-26T06:20:13;100026.66;;;23.78;63.10
31483;BME280;18103;52.246;8.052;2023-06-26T06:22:38;100031.59;;;23.95;63.50
31483;BME280;18103;52.246;8.052;2023-06-26T06:25:04;100020.94;;;24.06;63.35
31483;BME280;18103;52.246;8.052;2023-06-26T06:27:29;100024.66;;;24.12;63.18
31483;BME280;18103;52.246;8.052;2023-06-26T06:29:59;100032.34;;;24.08;63.03
31483;BME280;18103;52.246;8.052;2023-06-26T06:32:24;100041.59;;;23.87;63.51
31483;BME280;18103;52.246;8.052;2023-06-26T06:34:49;100035.91;;;24.02;63.22
31483;BME280;18103;52.246;8.052;2023-06-26T06:37:15;100027.88;;;23.89;63.92
31483;BME280;18103;52.246;8.052;2023-06-26T06:39:42;100030.16;;;24.24;62.52
31483;BME280;18103;52.246;8.052;2023-06-26T06:42:10;100037.28;;;24.12;63.41
31483;BME280;18103;52.246;8.052;2023-06-26T06:44:36;100031.63;;;24.20;63.30
31483;BME280;18103;52.246;8.052;2023-06-26T06:47:01;100038.50;;;24.16;63.45
31483;BME280;18103;52.246;8.052;2023-06-26T06:49:26;100039.00;;;23.99;64.16
31483;BME280;18103;52.246;8.052;2023-06-26T06:51:52;100042.63;;;24.18;64.10
31483;BME280;18103;52.246;8.052;2023-06-26T06:54:17;100042.34;;;24.01;64.06
31483;BME280;18103;52.246;8.052;2023-06-26T06:56:48;100032.59;;;24.32;64.16
31483;BME280;18103;52.246;8.052;2023-06-26T06:59:15;100033.47;;;24.51;63.92
31483;BME280;18103;52.246;8.052;2023-06-26T07:01:43;100029.88;;;24.32;64.25
31483;BME280;18103;52.246;8.052;2023-06-26T07:04:08;100035.63;;;24.68;63.87
31483;BME280;18103;52.246;8.052;2023-06-26T07:06:36;100037.00;;;24.52;64.09
31483;BME280;18103;52.246;8.052;2023-06-26T07:09:01;100043.09;;;24.72;64.23
31483;BME280;18103;52.246;8.052;2023-06-26T07:11:31;100045.66;;;24.86;63.01
31483;BME280;18103;52.246;8.052;2023-06-26T07:14:01;100046.72;;;24.85;63.69
31483;BME280;18103;52.246;8.052;2023-06-26T07:16:26;100066.47;;;24.53;63.76
31483;BME280;18103;52.246;8.052;2023-06-26T07:18:54;100060.56;;;24.70;64.02
31483;BME280;18103;52.246;8.052;2023-06-26T07:21:22;100058.63;;;24.77;63.59
31483;BME280;18103;52.246;8.052;2023-06-26T07:23:47;100074.00;;;24.76;64.01
31483;BME280;18103;52.246;8.052;2023-06-26T07:26:14;100078.69;;;24.63;64.55
31483;BME280;18103;52.246;8.052;2023-06-26T07:28:39;100090.56;;;24.48;64.74
31483;BME280;18103;52.246;8.052;2023-06-26T07:31:05;100096.28;;;24.33;64.60
31483;BME280;18103;52.246;8.052;2023-06-26T07:33:30;100106.19;;;24.39;64.68
31483;BME280;18103;52.246;8.052;2023-06-26T07:35:56;100102.38;;;24.22;65.62
31483;BME280;18103;52.246;8.052;2023-06-26T07:38:23;100113.22;;;24.15;65.54
31483;BME280;18103;52.246;8.052;2023-06-26T07:40:49;100124.94;;;23.89;68.61
31483;BME280;18103;52.246;8.052;2023-06-26T07:43:14;100136.44;;;23.44;73.61
31483;BME280;18103;52.246;8.052;2023-06-26T07:45:42;100137.53;;;23.16;74.53
31483;BME280;18103;52.246;8.052;2023-06-26T07:48:08;100140.44;;;23.15;74.53
31483;BME280;18103;52.246;8.052;2023-06-26T07:50:36;100149.28;;;22.82;76.02
31483;BME280;18103;52.246;8.052;2023-06-26T07:53:02;100159.63;;;22.58;75.27
31483;BME280;18103;52.246;8.052;2023-06-26T07:55:27;100153.22;;;22.66;75.73
31483;BME280;18103;52.246;8.052;2023-06-26T07:57:53;100144.72;;;22.55;76.07
31483;BME280;18103;52.246;8.052;2023-06-26T08:00:20;100143.28;;;22.73;75.72
31483;BME280;18103;52.246;8.052;2023-06-26T08:02:46;100140.41;;;22.68;76.26
31483;BME280;18103;52.246;8.052;2023-06-26T08:05:11;100130.88;;;22.72;75.83
31483;BME280;18103;52.246;8.052;2023-06-26T08:07:37;100129.88;;;22.93;76.63
31483;BME280;18103;52.246;8.052;2023-06-26T08:10:02;100123.66;;;23.13;76.20
31483;BME280;18103;52.246;8.052;2023-06-26T08:12:30;100125.09;;;23.09;76.03
31483;BME280;18103;52.246;8.052;2023-06-26T08:14:57;100139.16;;;23.11;75.14
31483;BME280;18103;52.246;8.052;2023-06-26T08:17:23;100131.06;;;23.31;73.80
31483;BME280;18103;52.246;8.052;2023-06-26T08:19:48;100132.94;;;23.30;74.03
31483;BME280;18103;52.246;8.052;2023-06-26T08:22:16;100130.88;;;23.05;74.13
31483;BME280;18103;52.246;8.052;2023-06-26T08:24:44;100127.56;;;22.90;72.06
31483;BME280;18103;52.246;8.052;2023-06-26T08:27:11;100130.47;;;22.95;72.56
31483;BME280;18103;52.246;8.052;2023-06-26T08:29:37;100144.16;;;23.14;72.47
31483;BME280;18103;52.246;8.052;2023-06-26T08:32:02;100145.38;;;23.04;72.19
31483;BME280;18103;52.246;8.052;2023-06-26T08:34:27;100150.59;;;23.13;72.76
31483;BME280;18103;52.246;8.052;2023-06-26T08:36:53;100150.78;;;23.18;72.51
31483;BME280;18103;52.246;8.052;2023-06-26T08:39:20;100163.00;;;23.07;72.11
31483;BME280;18103;52.246;8.052;2023-06-26T08:41:46;100161.75;;;23.23;72.39
31483;BME280;18103;52.246;8.052;2023-06-26T08:44:11;100170.06;;;23.21;71.67
31483;BME280;18103;52.246;8.052;2023-06-26T08:46:39;100177.06;;;23.29;71.37
31483;BME280;18103;52.246;8.052;2023-06-26T08:51:51;100180.19;;;23.33;70.95
31483;BME280;18103;52.246;8.052;2023-06-26T08:54:21;100178.56;;;23.18;70.42
31483;BME280;18103;52.246;8.052;2023-06-26T08:56:49;100187.25;;;23.27;70.01
31483;BME280;18103;52.246;8.052;2023-06-26T08:59:18;100189.31;;;23.18;70.56
31483;BME280;18103;52.246;8.052;2023-06-26T09:01:44;100194.88;;;23.10;69.65
31483;BME280;18103;52.246;8.052;2023-06-26T09:04:13;100201.09;;;23.11;68.72
31483;BME280;18103;52.246;8.052;2023-06-26T09:06:39;100196.94;;;23.08;68.92
31483;BME280;18103;52.246;8.052;2023-06-26T09:09:07;100191.38;;;23.16;69.19
31483;BME280;18103;52.246;8.052;2023-06-26T09:11:33;100192.19;;;23.23;69.61
31483;BME280;18103;52.246;8.052;2023-06-26T09:14:00;100194.28;;;23.35;69.33
31483;BME280;18103;52.246;8.052;2023-06-26T09:16:26;100192.00;;;23.12;68.75
31483;BME280;18103;52.246;8.052;2023-06-26T09:18:52;100192.41;;;23.22;69.24
31483;BME280;18103;52.246;8.052;2023-06-26T09:21:18;100203.00;;;23.17;69.08
31483;BME280;18103;52.246;8.052;2023-06-26T09:23:43;100213.56;;;23.12;69.18
31483;BME280;18103;52.246;8.052;2023-06-26T09:26:09;100202.97;;;23.10;68.68
31483;BME280;18103;52.246;8.052;2023-06-26T09:28:35;100208.53;;;23.02;68.88
31483;BME280;18103;52.246;8.052;2023-06-26T09:31:02;100216.63;;;23.02;68.83
31483;BME280;18103;52.246;8.052;2023-06-26T09:33:33;100211.88;;;23.31;69.57
31483;BME280;18103;52.246;8.052;2023-06-26T09:36:05;100216.66;;;23.29;68.64
31483;BME280;18103;52.246;8.052;2023-06-26T09:38:34;100223.50;;;23.18;68.39
31483;BME280;18103;52.246;8.052;2023-06-26T09:41:01;100226.56;;;23.08;67.47
31483;BME280;18103;52.246;8.052;2023-06-26T09:43:26;100226.75;;;23.00;66.20
31483;BME280;18103;52.246;8.052;2023-06-26T09:45:52;100224.91;;;22.94;65.40
31483;BME280;18103;52.246;8.052;2023-06-26T09:48:21;100226.38;;;23.03;65.16
31483;BME280;18103;52.246;8.052;2023-06-26T09:50:47;100227.41;;;23.09;65.66
31483;BME280;18103;52.246;8.052;2023-06-26T09:53:15;100221.00;;;23.23;65.11
31483;BME280;18103;52.246;8.052;2023-06-26T09:55:43;100219.13;;;23.23;64.79
31483;BME280;18103;52.246;8.052;2023-06-26T09:58:11;100233.22;;;23.19;65.27
31483;BME280;18103;52.246;8.052;2023-06-26T10:00:43;100231.94;;;23.08;63.79
31483;BME280;18103;52.246;8.052;2023-06-26T10:03:12;100228.63;;;22.99;62.35
31483;BME280;18103;52.246;8.052;2023-06-26T10:05:42;100230.69;;;22.90;62.10
31483;BME280;18103;52.246;8.052;2023-06-26T10:08:09;100246.63;;;22.85;62.13
31483;BME280;18103;52.246;8.052;2023-06-26T10:10:37;100241.22;;;22.85;60.88
31483;BME280;18103;52.246;8.052;2023-06-26T10:13:09;100253.66;;;22.86;61.38
31483;BME280;18103;52.246;8.052;2023-06-26T10:15:38;100258.00;;;22.94;62.05
31483;BME280;18103;52.246;8.052;2023-06-26T10:18:06;100241.69;;;23.09;62.20
31483;BME280;18103;52.246;8.052;2023-06-26T10:20:32;100254.94;;;23.04;61.97
31483;BME280;18103;52.246;8.052;2023-06-26T10:23:00;100245.41;;;23.08;61.90
31483;BME280;18103;52.246;8.052;2023-06-26T10:25:30;100252.69;;;23.21;61.42
31483;BME280;18103;52.246;8.052;2023-06-26T10:27:58;100243.94;;;23.05;60.40
31483;BME280;18103;52.246;8.052;2023-06-26T10:30:30;100253.09;;;23.18;60.77
31483;BME280;18103;52.246;8.052;2023-06-26T10:32:57;100248.75;;;23.50;59.18
31483;BME280;18103;52.246;8.052;2023-06-26T10:35:24;100256.84;;;23.70;58.32
31483;BME280;18103;52.246;8.052;2023-06-26T10:37:50;100259.72;;;23.75;57.18
31483;BME280;18103;52.246;8.052;2023-06-26T10:40:24;100262.22;;;23.90;57.37
31483;BME280;18103;52.246;8.052;2023-06-26T10:42:50;100262.63;;;24.01;57.25
31483;BME280;18103;52.246;8.052;2023-06-26T10:45:20;100264.69;;;23.99;55.58
31483;BME280;18103;52.246;8.052;2023-06-26T10:47:52;100265.56;;;23.92;53.48
31483;BME280;18103;52.246;8.052;2023-06-26T10:50:31;100268.66;;;23.83;53.30
31483;BME280;18103;52.246;8.052;2023-06-26T10:55:35;100276.31;;;23.79;53.20
31483;BME280;18103;52.246;8.052;2023-06-26T10:58:01;100277.38;;;23.91;53.28
31483;BME280;18103;52.246;8.052;2023-06-26T11:00:29;100281.22;;;24.29;54.25
31483;BME280;18103;52.246;8.052;2023-06-26T11:03:02;100277.41;;;24.43;52.88
31483;BME280;18103;52.246;8.052;2023-06-26T11:05:45;100263.31;;;24.41;51.63
31483;BME280;18103;52.246;8.052;2023-06-26T11:08:13;100270.75;;;24.53;51.69
31483;BME280;18103;52.246;8.052;2023-06-26T11:10:54;100285.47;;;24.57;52.39
31483;BME280;18103;52.246;8.052;2023-06-26T11:13:25;100282.44;;;24.33;52.03
31483;BME280;18103;52.246;8.052;2023-06-26T11:15:51;100283.50;;;24.19;51.34
31483;BME280;18103;52.246;8.052;2023-06-26T11:18:24;100288.31;;;24.10;51.12
31483;BME280;18103;52.246;8.052;2023-06-26T11:21:04;100271.31;;;24.16;51.43
31483;BME280;18103;52.246;8.052;2023-06-26T11:23:32;100281.81;;;24.24;52.03
31483;BME280;18103;52.246;8.052;2023-06-26T11:26:15;100281.59;;;24.33;53.09
31483;BME280;18103;52.246;8.052;2023-06-26T11:28:51;100283.19;;;24.60;53.11
31483;BME280;18103;52.246;8.052;2023-06-26T11:31:43;100292.38;;;24.91;53.87
31483;BME280;18103;52.246;8.052;2023-06-26T11:34:10;100290.97;;;24.82;53.05
31483;BME280;18103;52.246;8.052;2023-06-26T11:36:41;100294.38;;;24.64;52.41
31483;BME280;18103;52.246;8.052;2023-06-26T11:39:08;100297.63;;;24.80;52.78
31483;BME280;18103;52.246;8.052;2023-06-26T11:41:38;100302.00;;;24.81;52.79
31483;BME280;18103;52.246;8.052;2023-06-26T11:44:08;100306.94;;;24.90;52.45
31483;BME280;18103;52.246;8.052;2023-06-26T11:46:40;100311.47;;;24.90;52.08
31483;BME280;18103;52.246;8.052;2023-06-26T11:49:07;100310.72;;;24.76;51.99
31483;BME280;18103;52.246;8.052;2023-06-26T11:51:33;100301.09;;;24.93;51.64
31483;BME280;18103;52.246;8.052;2023-06-26T11:54:01;100297.75;;;24.91;52.22
31483;BME280;18103;52.246;8.052;2023-06-26T11:56:28;100304.25;;;24.84;51.11
31483;BME280;18103;52.246;8.052;2023-06-26T11:59:04;100304.97;;;24.59;51.49
31483;BME280;18103;52.246;8.052;2023-06-26T12:01:34;100317.00;;;24.70;51.52
31483;BME280;18103;52.246;8.052;2023-06-26T12:04:02;100314.50;;;24.68;50.97
31483;BME280;18103;52.246;8.052;2023-06-26T12:06:36;100314.38;;;24.95;52.14
31483;BME280;18103;52.246;8.052;2023-06-26T12:09:06;100327.91;;;24.88;51.45
31483;BME280;18103;52.246;8.052;2023-06-26T12:11:34;100328.00;;;24.75;50.97
31483;BME280;18103;52.246;8.052;2023-06-26T12:14:00;100326.78;;;24.64;51.42
31483;BME280;18103;52.246;8.052;2023-06-26T12:16:28;100327.38;;;24.66;51.74
31483;BME280;18103;52.246;8.052;2023-06-26T12:19:01;100320.94;;;24.67;50.87
31483;BME280;18103;52.246;8.052;2023-06-26T12:24:13;100323.50;;;24.94;51.07
31483;BME280;18103;52.246;8.052;2023-06-26T12:26:45;100322.09;;;25.23;51.08
31483;BME280;18103;52.246;8.052;2023-06-26T12:29:15;100329.19;;;24.79;49.05
31483;BME280;18103;52.246;8.052;2023-06-26T12:31:44;100327.78;;;24.70;50.35
31483;BME280;18103;52.246;8.052;2023-06-26T12:34:12;100323.66;;;24.67;52.18
31483;BME280;18103;52.246;8.052;2023-06-26T12:36:44;100322.25;;;24.51;52.70
31483;BME280;18103;52.246;8.052;2023-06-26T12:39:11;100327.81;;;24.50;51.99
31483;BME280;18103;52.246;8.052;2023-06-26T12:41:52;100320.56;;;24.57;51.90
31483;BME280;18103;52.246;8.052;2023-06-26T12:44:30;100323.91;;;24.46;50.98
31483;BME280;18103;52.246;8.052;2023-06-26T12:47:00;100330.56;;;24.95;51.31
31483;BME280;18103;52.246;8.052;2023-06-26T12:49:39;100329.19;;;25.18;51.57
31483;BME280;18103;52.246;8.052;2023-06-26T12:52:09;100329.88;;;25.06;50.87
31483;BME280;18103;52.246;8.052;2023-06-26T12:54:40;100340.03;;;24.59;51.33
31483;BME280;18103;52.246;8.052;2023-06-26T12:57:06;100332.41;;;24.63;51.99
31483;BME280;18103;52.246;8.052;2023-06-26T12:59:35;100347.69;;;24.82;51.78
31483;BME280;18103;52.246;8.052;2023-06-26T13:02:04;100356.81;;;24.81;50.73
31483;BME280;18103;52.246;8.052;2023-06-26T13:04:30;100362.88;;;24.76;50.51